Latest Coastal Weather Observations for Warrnambool

IDV60701

Issued at 11:12 pm EST Saturday 25 June 2022 (issued every 10 minutes, with the page automatically refreshed every 10 minutes)

About coastal observations | Map of coastal stations | Coastal observations for VIC | Marine services | Other Formats
Station Details ID: 090186 Name: WARRNAMBOOL AIRPORT NDB Lat: -38.29 Lon: 142.45 Height: 70.8 m
Data from the previous 72 hours. | See also: Recent months at Warrnambool
Date/Time
EST
Wind Sea
Height
m
Swell Vis
km
Cloud Weather Temp
°C
Press
MSL
hPa
Rain since
9am
mm
Dir  Spd
kts
Gust
kts
Height
m
Period
s
Dir
25/11:00pm NNW 13 20 - - - - 9 Partly cloudy - 11.2 1019.3 0.2
25/10:30pm NW 15 22 - - - - 10 Partly cloudy - 11.1 1019.0 0.2
25/10:00pm NW 13 17 - - - - 10 Partly cloudy - 11.3 1019.0 0.2
25/09:30pm NW 14 18 - - - - 7 Partly cloudy - 11.0 1019.0 0.2
25/09:00pm NNW 14 20 - - - - 10 Mostly clear - 10.9 1018.8 0.2
25/08:30pm NNW 13 17 - - - - 10 Partly cloudy - 11.1 1018.7 0.2
25/08:00pm NNW 13 17 - - - - 10 Partly cloudy - 10.9 1018.4 0.2
25/07:30pm NNW 12 16 - - - - 10 Partly cloudy - 11.3 1018.4 0.2
25/07:15pm NW 10 15 - - - - 8 Partly cloudy - 11.7 1018.3 0.2
25/07:01pm NW 11 15 - - - - 5 Partly cloudy - 11.9 1018.3 0.2
25/07:00pm NW 11 17 - - - - 6 Partly cloudy - 11.9 1018.3 0.2
25/06:30pm NNW 13 19 - - - - 10 Partly cloudy - 11.6 1017.8 0.0
25/06:00pm NNW 12 14 - - - - 9 Cloudy - 12.1 1017.6 0.0
25/05:30pm NNW 13 16 - - - - 10 Partly cloudy - 12.0 1017.3 0.0
25/05:00pm NNW 13 17 - - - - 10 - - 12.4 1017.2 0.0
25/04:30pm NW 14 18 - - - - 10 - - 13.2 1016.9 0.0
25/04:00pm NW 14 18 - - - - 10 Partly cloudy - 13.6 1017.0 0.0
25/03:30pm NW 14 19 - - - - 10 Partly cloudy - 13.5 1017.2 0.0
25/03:00pm NW 17 23 - - - - 10 Partly cloudy - 13.6 1017.2 0.0
25/02:31pm NW 13 18 - - - - 10 Partly cloudy - 13.6 1017.3 0.0
25/02:30pm NW 13 18 - - - - 10 Partly cloudy - 13.8 1017.3 0.0
25/02:09pm NW 16 25 - - - - 5 Partly cloudy - 12.7 1017.5 0.0
25/02:00pm NW 16 21 - - - - 8 Partly cloudy - 13.6 1017.3 0.0
25/01:30pm NW 19 25 - - - - 10 Partly cloudy - 14.5 1017.5 0.0
25/01:00pm NW 19 25 - - - - 10 Partly cloudy - 14.1 1017.6 0.0
25/12:30pm NW 17 23 - - - - 10 Partly cloudy - 13.5 1017.8 0.0
25/12:00pm NW 19 25 - - - - 10 Cloudy - 13.3 1018.2 0.0
25/11:30am NW 16 22 - - - - 10 Partly cloudy - 13.6 1018.3 0.0
25/11:00am NNW 15 20 - - - - 10 - - 13.2 1018.4 0.0
25/10:30am NNW 14 18 - - - - 10 - - 12.3 1018.4 0.0
25/10:00am NNW 14 18 - - - - 9 - - 11.5 1017.9 0.0
25/09:30am NNW 13 19 - - - - 10 - - 10.5 1017.8 0.0
25/09:00am NNW 12 17 - - - - 9 - Recent precip. 9.7 1017.7 -
25/08:30am NNW 11 15 - - - - 10 Partly cloudy - 9.2 1017.6 -
25/08:00am NNW 10 13 - - - - 10 - - 7.8 1017.5 -
25/07:30am N 11 12 - - - - 10 - - 7.2 1017.3 -
25/07:00am N 10 12 - - - - 8 - - 7.4 1016.9 -
25/06:30am NNW 12 16 - - - - 9 - - 8.4 1016.6 -
25/06:00am NNW 11 15 - - - - 10 - - 8.2 1016.5 -
25/05:30am N 9 12 - - - - 10 - - 7.0 1016.3 -
25/05:00am N 11 13 - - - - 10 Partly cloudy - 7.4 1016.1 -
25/04:30am NNW 11 14 - - - - 9 Partly cloudy - 8.5 1015.9 -
25/04:00am NNW 10 13 - - - - 10 Partly cloudy - 8.4 1016.0 -
25/03:30am NNW 12 15 - - - - 7 - - 8.6 1016.0 -
25/03:00am NNW 11 14 - - - - 10 - - 8.0 1016.1 -
25/02:30am - - - - - - - - - - 8.2 1016.1 -
25/02:00am - - - - - - - - - - 8.4 1015.9 -
25/01:30am NNW 11 15 - - - - 10 Partly cloudy - 8.5 1015.9 1.0
25/01:00am NNW 12 15 - - - - 10 - - 8.5 1016.2 1.0
25/12:30am NNW 12 16 - - - - 9 - - 8.5 1016.4 1.0
25/12:00am N 11 12 - - - - 7 - - 8.2 1016.5 1.0
 
Date/Time
EST
Wind Sea
Height
m
Swell Vis
km
Cloud Weather Temp
°C
Press
MSL
hPa
Rain since
9am
mm
Dir  Spd
kts
Gust
kts
Height
m
Period
s
Dir
24/11:30pm N 11 13 - - - - 8 - - 8.2 1016.7 1.0
24/11:00pm NNW 11 13 - - - - 10 - - 8.9 1016.7 1.0
24/10:30pm NNW 11 14 - - - - 10 Partly cloudy - 9.3 1016.7 1.0
24/10:00pm NNW 11 14 - - - - 10 Partly cloudy - 9.7 1016.8 1.0
24/09:30pm NNW 10 14 - - - - 10 Cloudy - 9.4 1016.9 1.0
24/09:00pm NNW 10 12 - - - - 10 Cloudy - 9.5 1017.0 1.0
24/08:30pm NNW 9 11 - - - - 10 Partly cloudy - 9.2 1017.0 1.0
24/08:00pm NNW 8 10 - - - - 9 Partly cloudy - 8.7 1016.9 1.0
24/07:30pm NW 8 9 - - - - 9 Partly cloudy - 8.6 1016.8 1.0
24/07:00pm NW 9 13 - - - - 8 Partly cloudy - 9.9 1016.6 1.0
24/06:30pm NW 6 7 - - - - 10 Partly cloudy - 9.5 1016.2 1.0
24/06:00pm WNW 9 15 - - - - 6 Cloudy - 10.9 1016.1 1.0
24/05:30pm WNW 7 9 - - - - 10 Partly cloudy - 11.3 1015.9 1.0
24/05:00pm W 8 10 - - - - 9 Partly cloudy - 11.0 1015.6 1.0
24/04:30pm W 11 15 - - - - 8 Partly cloudy - 12.1 1015.4 1.0
24/04:00pm W 8 11 - - - - 8 Partly cloudy - 13.0 1015.3 1.0
24/03:30pm WSW 11 14 - - - - 10 Partly cloudy - 13.5 1015.2 1.0
24/03:00pm WSW 13 18 - - - - 10 Cloudy - 13.5 1015.2 1.0
24/02:30pm WSW 15 19 - - - - 9 Partly cloudy - 13.1 1015.0 1.0
24/02:00pm W 12 15 - - - - 6 Partly cloudy - 13.7 1014.9 1.0
24/01:30pm WSW 14 20 - - - - 10 Partly cloudy - 14.1 1015.0 1.0
24/01:00pm W 11 15 - - - - 10 Partly cloudy - 13.4 1015.2 1.0
24/12:40pm W 11 14 - - - - 9 Partly cloudy - 11.8 1015.5 1.0
24/12:30pm WSW 14 21 - - - - 4 Partly cloudy - 11.3 1015.5 1.0
24/12:20pm W 13 21 - - - - 5 Partly cloudy - 12.3 1015.5 0.6
24/12:00pm W 11 15 - - - - 10 Mostly cloudy Recent precip. 13.1 1015.5 0.4
24/11:51am W 11 17 - - - - 10 Partly cloudy - 12.7 1015.6 0.4
24/11:32am WNW 11 18 - - - - 5 Partly cloudy - 12.3 1015.7 0.2
24/11:30am WNW 10 15 - - - - 7 Partly cloudy - 12.6 1015.7 0.2
24/11:00am WNW 10 17 - - - - 9 Partly cloudy - 12.3 1015.6 0.2
24/10:30am WNW 9 14 - - - - 10 Partly cloudy - 12.7 1015.4 0.2
24/10:00am WNW 9 12 - - - - 8 Partly cloudy - 11.6 1015.3 0.2
24/09:56am WNW 9 14 - - - - 8 Partly cloudy - 11.4 1015.2 0.2
24/09:37am NW 9 13 - - - - 5 Partly cloudy - 11.4 1015.0 0.2
24/09:30am NW 9 14 - - - - 8 Partly cloudy - 11.4 1014.9 0.2
24/09:14am NW 9 14 - - - - 9 Partly cloudy - 11.3 1014.8 0.2
24/09:00am NW 9 13 - - - - 5 Mostly cloudy - 11.1 1014.7 6.4
24/08:47am WNW 7 11 - - - - 8 Partly cloudy - 10.6 1014.6 6.4
24/08:30am WNW 9 12 - - - - 5 Partly cloudy - 10.7 1014.5 6.4
24/08:28am WNW 9 12 - - - - 5 Partly cloudy - 10.8 1014.5 6.4
24/08:00am NW 8 11 - - - - 9 Partly cloudy - 10.1 1014.0 6.4
24/07:30am NW 7 9 - - - - 8 Partly cloudy - 9.8 1013.7 6.4
24/07:23am NW 7 10 - - - - 8 Partly cloudy - 10.2 1013.6 6.4
24/07:07am NW 6 9 - - - - 5 Partly cloudy - 10.5 1013.4 6.4
24/07:00am NW 8 10 - - - - 8 Partly cloudy - 10.3 1013.4 6.4
24/06:41am WNW 7 9 - - - - 9 Partly cloudy - 10.8 1013.1 6.4
24/06:30am W 9 13 - - - - 10 Partly cloudy - 11.0 1012.9 6.4
24/06:09am W 11 15 - - - - 9 Partly cloudy - 11.0 1012.8 6.2
24/06:00am W 13 18 - - - - 6 Cloudy Recent precip. 11.3 1012.7 6.2
24/05:43am WNW 12 18 - - - - 4 Partly cloudy - 11.4 1012.5 6.0
24/05:42am WNW 11 17 - - - - 5 Partly cloudy - 11.4 1012.4 6.0
24/05:30am WNW 8 12 - - - - 10 Partly cloudy - 11.3 1012.0 6.0
24/05:21am WNW 9 13 - - - - 10 Partly cloudy - 11.3 1011.9 6.0
24/05:04am WNW 9 13 - - - - 10 Partly cloudy - 11.6 1011.8 6.0
24/05:00am WNW 9 12 - - - - 10 Partly cloudy - 11.6 1011.9 6.0
24/04:30am WNW 10 17 - - - - 5 Partly cloudy - 11.7 1011.7 5.4
24/04:23am WNW 9 15 - - - - 5 Partly cloudy - 11.8 1011.7 5.4
24/04:00am WNW 10 14 - - - - 6 Cloudy - 11.9 1011.5 5.4
24/03:50am NW 12 18 - - - - 10 Partly cloudy - 12.0 1011.4 5.4
24/03:39am NW 11 16 - - - - 5 Partly cloudy - 12.0 1011.4 5.4
24/03:35am NW 11 17 - - - - 5 Partly cloudy - 12.0 1011.4 5.4
24/03:30am NW 12 17 - - - - 10 Partly cloudy - 12.1 1011.4 5.4
24/03:00am NNW 13 19 - - - - 10 Cloudy Recent precip. 11.9 1011.1 5.4
24/02:30am NNW 13 17 - - - - 10 Partly cloudy - 11.7 1011.1 5.4
24/02:13am NW 12 16 - - - - 7 Partly cloudy - 11.9 1011.3 5.2
24/02:02am NW 13 18 - - - - 5 Partly cloudy - 11.9 1011.4 5.0
24/02:00am NW 13 17 - - - - 6 Partly cloudy - 11.9 1011.3 4.8
24/01:52am NW 13 17 - - - - 10 Partly cloudy - 11.9 1011.3 4.4
24/01:30am NW 11 15 - - - - 3 Partly cloudy - 11.8 1011.7 4.2
24/01:00am WNW 7 11 - - - - 4 Partly cloudy - 11.8 1011.6 3.0
24/12:58am WNW 7 11 - - - - 5 Partly cloudy - 11.8 1011.6 3.0
24/12:35am NW 11 18 - - - - 10 Partly cloudy - 11.8 1011.8 2.8
24/12:30am NW 8 12 - - - - 9 Partly cloudy - 11.6 1011.7 2.8
24/12:00am WSW 12 15 - - - - 4 Mostly cloudy Rain 11.7 1012.2 1.2
 
Date/Time
EST
Wind Sea
Height
m
Swell Vis
km
Cloud Weather Temp
°C
Press
MSL
hPa
Rain since
9am
mm
Dir  Spd
kts
Gust
kts
Height
m
Period
s
Dir
23/11:52pm WSW 12 15 - - - - 5 Cloudy - 11.9 1012.2 0.6
23/11:45pm WSW 11 17 - - - - 10 Partly cloudy - 12.2 1012.2 0.2
23/11:30pm NW 16 23 - - - - 5 Partly cloudy - 13.2 1012.0 0.0
23/11:25pm NW 17 23 - - - - 5 Partly cloudy - 13.0 1011.8 0.0
23/11:00pm NW 16 22 - - - - 10 Partly cloudy - 14.2 1011.6 0.0
23/10:30pm NNW 19 26 - - - - 10 - - 13.9 1011.4 0.0
23/10:22pm NNW 19 29 - - - - 10 - - 13.8 1011.4 0.0
23/10:00pm NNW 20 26 - - - - 10 - - 13.8 1011.2 0.0
23/09:30pm NNW 17 22 - - - - 10 - - 13.6 1011.4 0.0
23/09:00pm NNW 18 23 - - - - 10 Partly cloudy - 13.6 1011.9 0.0
23/08:30pm NNW 17 23 - - - - 10 - - 13.7 1012.3 0.0
23/08:00pm NNW 18 23 - - - - 10 Partly cloudy - 13.8 1012.6 0.0
23/07:30pm N 17 24 - - - - 10 Partly cloudy - 13.9 1012.8 0.0
23/07:00pm N 13 16 - - - - 10 Partly cloudy - 13.0 1013.0 0.0
23/06:30pm N 11 14 - - - - 9 Partly cloudy - 13.2 1013.3 0.0
23/06:00pm NNW 12 16 - - - - 10 Mostly cloudy - 13.8 1013.7 0.0
23/05:30pm NNW 12 16 - - - - 10 - - 14.2 1013.7 0.0
23/05:00pm NNW 12 17 - - - - 8 - - 14.2 1013.8 0.0
23/04:30pm NNW 14 17 - - - - 10 - - 14.7 1014.0 0.0
23/04:00pm NNW 16 22 - - - - 10 - - 15.0 1014.3 0.0
23/03:30pm NNW 15 19 - - - - 10 - - 15.1 1014.5 0.0
23/03:00pm NNW 18 25 - - - - 10 Mostly cloudy - 15.1 1014.6 0.0
23/02:30pm NNW 17 25 - - - - 10 - - 15.4 1015.1 0.0
23/02:00pm NW 20 26 - - - - 10 - - 15.7 1015.2 0.0
23/01:30pm NW 17 23 - - - - 10 - - 15.4 1015.7 0.0
23/01:00pm NNW 17 23 - - - - 10 - - 14.8 1016.3 0.0
23/12:30pm NNW 18 23 - - - - 8 - - 14.9 1016.9 0.0
23/12:00pm NNW 20 25 - - - - 10 - - 14.7 1017.2 0.0
23/11:30am NNW 20 27 - - - - 10 - - 14.3 1017.8 0.0
23/11:00am NNW 19 25 - - - - 10 - - 14.0 1018.3 0.0
23/10:30am NNW 17 25 - - - - 10 - - 13.7 1018.6 0.0
23/10:00am NNW 16 21 - - - - 10 - - 13.3 1019.0 0.0
23/09:30am NNW 15 19 - - - - 10 - - 12.8 1019.3 0.0
23/09:00am NNW 14 19 - - - - 10 Partly cloudy - 12.4 1019.5 0.2
23/08:30am N 11 14 - - - - 10 - - 12.1 1019.6 0.2
23/08:00am NNW 13 18 - - - - 9 - - 12.1 1019.6 0.2
23/07:30am NNW 12 17 - - - - 10 Partly cloudy - 11.9 1019.7 0.2
23/07:00am NNW 11 15 - - - - 10 Partly cloudy - 12.0 1019.7 0.2
23/06:30am NNW 12 16 - - - - 10 Partly cloudy - 12.1 1019.6 0.2
23/06:00am NNW 10 12 - - - - 10 Cloudy - 11.6 1019.7 0.2
23/05:30am NNW 11 14 - - - - 10 - - 11.4 1019.7 0.2
23/05:00am NNW 12 17 - - - - 10 Partly cloudy - 11.4 1019.5 0.2
23/04:42am NNW 13 18 - - - - 7 Partly cloudy - 11.7 1019.8 0.2
23/04:30am NNW 15 21 - - - - 10 Cloudy - 11.8 1019.9 0.2
23/04:09am NNW 13 18 - - - - 10 Partly cloudy - 11.9 1019.8 0.2
23/04:00am NNW 12 16 - - - - 10 Partly cloudy - 11.7 1019.7 0.2
23/03:30am N 10 13 - - - - 10 Partly cloudy - 11.7 1019.9 0.2
23/03:05am N 9 12 - - - - 10 Partly cloudy - 12.0 1020.5 0.2
23/03:00am NNW 9 11 - - - - 8 Partly cloudy Rain 12.0 1020.5 0.2
23/02:44am NNW 15 19 - - - - 5 Partly cloudy - 12.2 1020.7 0.0
23/02:30am N 13 17 - - - - 10 Cloudy - 12.2 1020.6 0.0
23/02:00am NNW 14 17 - - - - 10 Cloudy - 12.2 1021.0 0.0
23/01:30am NNW 11 14 - - - - 10 Partly cloudy - 11.8 1021.4 0.0
23/01:00am N 9 11 - - - - 10 Partly cloudy - 11.5 1021.5 0.0
23/12:30am NNW 9 11 - - - - 10 Partly cloudy - 11.5 1021.9 0.0
23/12:25am NW 9 11 - - - - 10 Partly cloudy - 11.6 1021.9 0.0
23/12:04am NNW 7 8 - - - - 10 Partly cloudy - 11.7 1022.1 0.0
23/12:00am NW 7 9 - - - - 9 Cloudy - 11.8 1022.1 0.0
 
Date/Time
EST
Wind Sea
Height
m
Swell Vis
km
Cloud Weather Temp
°C
Press
MSL
hPa
Rain since
9am
mm
Dir  Spd
kts
Gust
kts
Height
m
Period
s
Dir
22/11:30pm NW 10 15 - - - - 5 Partly cloudy - 11.8 1022.5 0.0
22/11:27pm NW 11 15 - - - - 7 Partly cloudy - 11.8 1022.5 0.0

Other formats

Comma delimited format used in spreadsheet applications
http://www.bom.gov.au/fwo/IDV60701/IDV60701.94837.axf

JavaScript Object Notation format (JSON) in row-major order
http://www.bom.gov.au/fwo/IDV60701/IDV60701.94837.json

Data quality

Most of these data are generated automatically and are frequently updated. Quality checks on data are not normally performed. It is possible for incorrect values to appear. Refer to information at About Latest Weather Observations and please check the disclaimer before using these data.